Time,TemperatureF,DewpointF,PressureIn,WindDirection,WindDirectionDegrees,WindSpeedMPH,WindSpeedGustMPH,Humidity,HourlyPrecipIn,Conditions,Clouds,dailyrainin,SolarRadiationWatts/m^2,SoftwareType,DateUTC
2013-04-04 00:02:00,38.0,28.0,-100.00,South,183,8.0,19.0,67,0.00,,,0.00,0.000000,,2013-04-04 05:02:00,
2013-04-04 00:13:00,38.0,28.0,-100.00,South,183,8.0,19.0,67,0.00,,,0.00,0.000000,,2013-04-04 05:13:00,
2013-04-04 00:32:00,39.0,28.0,-100.00,South,191,8.0,18.0,64,0.00,,,0.00,0.000000,,2013-04-04 05:32:00,
2013-04-04 00:42:00,39.0,28.0,-100.00,South,191,8.0,18.0,64,0.00,,,0.00,0.000000,,2013-04-04 05:42:00,
2013-04-04 00:53:00,39.0,28.0,-100.00,South,191,8.0,18.0,64,0.00,,,0.00,0.000000,,2013-04-04 05:53:00,
2013-04-04 01:02:00,39.0,28.0,-100.00,South,191,8.0,18.0,64,0.00,,,0.00,0.000000,,2013-04-04 06:02:00,
2013-04-04 01:12:00,39.0,28.0,-100.00,South,191,8.0,18.0,64,0.00,,,0.00,0.000000,,2013-04-04 06:12:00,
2013-04-04 01:43:00,39.0,27.0,-100.00,SSW,195,6.0,17.0,63,0.00,,,0.00,0.000000,,2013-04-04 06:43:00,
2013-04-04 01:53:00,39.0,27.0,-100.00,SSW,195,6.0,17.0,63,0.00,,,0.00,0.000000,,2013-04-04 06:53:00,
2013-04-04 02:02:00,39.0,27.0,-100.00,SSW,195,6.0,17.0,63,0.00,,,0.00,0.000000,,2013-04-04 07:02:00,
2013-04-04 02:12:00,39.0,27.0,-100.00,SSW,195,6.0,17.0,63,0.00,,,0.00,0.000000,,2013-04-04 07:12:00,
2013-04-04 02:43:00,40.0,28.0,-100.00,SSW,193,8.0,17.0,62,0.00,,,-99.99,0.000000,,2013-04-04 07:43:00,
2013-04-04 02:53:00,40.0,28.0,-100.00,SSW,193,8.0,17.0,62,0.00,,,-99.99,0.000000,,2013-04-04 07:53:00,
2013-04-04 03:02:00,40.0,28.0,-100.00,SSW,193,8.0,17.0,62,0.00,,,-99.99,0.000000,,2013-04-04 08:02:00,
2013-04-04 03:12:00,40.0,28.0,-100.00,SSW,193,8.0,17.0,62,0.00,,,-99.99,0.000000,,2013-04-04 08:12:00,
2013-04-04 03:52:00,39.0,27.0,-100.00,SSW,207,4.0,15.0,61,0.00,,,0.00,0.000000,,2013-04-04 08:52:00,
2013-04-04 04:03:00,39.0,27.0,-100.00,SSW,207,4.0,15.0,61,0.00,,,0.00,0.000000,,2013-04-04 09:03:00,
2013-04-04 04:12:00,39.0,27.0,-100.00,SSW,207,4.0,15.0,61,0.00,,,0.00,0.000000,,2013-04-04 09:12:00,
2013-04-04 04:44:00,38.0,27.0,-100.00,SSW,210,2.0,7.0,65,0.00,,,0.00,0.000000,,2013-04-04 09:44:00,
2013-04-04 04:54:00,38.0,27.0,-100.00,SSW,210,2.0,7.0,65,0.00,,,0.00,0.000000,,2013-04-04 09:54:00,
2013-04-04 05:04:00,38.0,27.0,-100.00,SSW,210,2.0,7.0,65,0.00,,,0.00,0.000000,,2013-04-04 10:04:00,
2013-04-04 05:12:00,38.0,27.0,-100.00,SSW,210,2.0,7.0,65,0.00,,,0.00,0.000000,,2013-04-04 10:12:00,
2013-04-04 05:43:00,40.0,29.0,-100.00,WSW,244,3.0,8.0,65,0.00,,,0.00,0.000000,,2013-04-04 10:43:00,
2013-04-04 05:54:00,40.0,29.0,-100.00,WSW,244,3.0,8.0,65,0.00,,,0.00,0.000000,,2013-04-04 10:54:00,
2013-04-04 06:02:00,40.0,29.0,-100.00,WSW,244,3.0,8.0,65,0.00,,,0.00,0.000000,,2013-04-04 11:02:00,
2013-04-04 06:12:00,40.0,29.0,-100.00,WSW,244,3.0,8.0,65,0.00,,,0.00,0.000000,,2013-04-04 11:12:00,
2013-04-04 06:33:00,38.0,30.0,-100.00,WSW,257,3.0,8.0,72,0.00,,,0.00,0.000000,,2013-04-04 11:33:00,
2013-04-04 06:43:00,38.0,30.0,-100.00,WSW,257,3.0,8.0,72,0.00,,,0.00,0.000000,,2013-04-04 11:43:00,
2013-04-04 06:54:00,38.0,30.0,-100.00,WSW,257,3.0,8.0,72,0.00,,,0.00,0.000000,,2013-04-04 11:54:00,
2013-04-04 07:02:00,38.0,30.0,-100.00,WSW,257,3.0,8.0,72,0.00,,,0.00,0.000000,,2013-04-04 12:02:00,
2013-04-04 07:12:00,38.0,30.0,-100.00,WSW,257,3.0,8.0,72,0.00,,,0.00,0.000000,,2013-04-04 12:12:00,
2013-04-04 07:44:00,37.0,30.0,-100.00,WNW,284,3.0,6.0,76,0.00,,,0.00,12.000000,,2013-04-04 12:44:00,
2013-04-04 07:52:00,37.0,30.0,-100.00,WNW,284,3.0,6.0,76,0.00,,,0.00,12.000000,,2013-04-04 12:52:00,
2013-04-04 08:02:00,37.0,30.0,-100.00,WNW,284,3.0,6.0,76,0.00,,,0.00,12.000000,,2013-04-04 13:02:00,
2013-04-04 08:12:00,37.0,30.0,-100.00,WNW,284,3.0,6.0,76,0.00,,,0.00,12.000000,,2013-04-04 13:12:00,
2013-04-04 08:43:00,38.0,30.0,-100.00,WNW,287,4.0,8.0,74,0.00,,,0.00,90.000000,,2013-04-04 13:43:00,
2013-04-04 08:53:00,38.0,30.0,-100.00,WNW,287,4.0,8.0,74,0.00,,,0.00,90.000000,,2013-04-04 13:53:00,
2013-04-04 09:03:00,38.0,30.0,-100.00,WNW,287,4.0,8.0,74,0.00,,,0.00,90.000000,,2013-04-04 14:03:00,
2013-04-04 09:13:00,38.0,30.0,-100.00,WNW,287,4.0,8.0,74,0.00,,,0.00,90.000000,,2013-04-04 14:13:00,
2013-04-04 09:43:00,40.0,30.0,-100.00,NNW,328,7.0,14.0,68,0.00,,,0.00,279.000000,,2013-04-04 14:43:00,
2013-04-04 09:53:00,40.0,30.0,-100.00,NNW,328,7.0,14.0,68,0.00,,,0.00,279.000000,,2013-04-04 14:53:00,
2013-04-04 10:02:00,40.0,30.0,-100.00,NNW,328,7.0,14.0,68,0.00,,,0.00,279.000000,,2013-04-04 15:02:00,
2013-04-04 10:12:00,40.0,30.0,-100.00,NNW,328,7.0,14.0,68,0.00,,,0.00,279.000000,,2013-04-04 15:12:00,
2013-04-04 10:43:00,42.0,27.0,-100.00,NW,324,8.0,16.0,55,0.00,,,0.00,461.000000,,2013-04-04 15:43:00,
2013-04-04 10:54:00,42.0,27.0,-100.00,NW,324,8.0,16.0,55,0.00,,,0.00,461.000000,,2013-04-04 15:54:00,
2013-04-04 11:03:00,42.0,27.0,-100.00,NW,324,8.0,16.0,55,0.00,,,0.00,461.000000,,2013-04-04 16:03:00,
2013-04-04 11:12:00,42.0,27.0,-100.00,NW,324,8.0,16.0,55,0.00,,,0.00,461.000000,,2013-04-04 16:12:00,
2013-04-04 11:43:00,46.0,24.0,-100.00,NNW,347,8.0,17.0,42,0.00,,,0.00,613.000000,,2013-04-04 16:43:00,
2013-04-04 11:54:00,46.0,24.0,-100.00,NNW,347,8.0,17.0,42,0.00,,,0.00,613.000000,,2013-04-04 16:54:00,
2013-04-04 12:03:00,46.0,24.0,-100.00,NNW,347,8.0,17.0,42,0.00,,,0.00,613.000000,,2013-04-04 17:03:00,
2013-04-04 12:13:00,46.0,24.0,-100.00,NNW,347,8.0,17.0,42,0.00,,,0.00,613.000000,,2013-04-04 17:13:00,
2013-04-04 12:43:00,47.0,23.0,-100.00,NNW,328,9.0,17.0,38,0.00,,,0.00,718.000000,,2013-04-04 17:43:00,
2013-04-04 12:53:00,47.0,23.0,-100.00,NNW,328,9.0,17.0,38,0.00,,,0.00,718.000000,,2013-04-04 17:53:00,
2013-04-04 13:02:00,47.0,23.0,-100.00,NNW,328,9.0,17.0,38,0.00,,,0.00,718.000000,,2013-04-04 18:02:00,
2013-04-04 13:12:00,47.0,23.0,-100.00,NNW,328,9.0,17.0,38,0.00,,,0.00,718.000000,,2013-04-04 18:12:00,
2013-04-04 13:43:00,47.0,22.0,-100.00,NW,316,11.0,23.0,37,0.00,,,0.00,683.000000,,2013-04-04 18:43:00,
2013-04-04 13:52:00,47.0,22.0,-100.00,NW,316,11.0,23.0,37,0.00,,,0.00,683.000000,,2013-04-04 18:52:00,
2013-04-04 14:02:00,47.0,22.0,-100.00,NW,316,11.0,23.0,37,0.00,,,0.00,683.000000,,2013-04-04 19:02:00,
2013-04-04 14:12:00,47.0,22.0,-100.00,NW,316,11.0,23.0,37,0.00,,,0.00,683.000000,,2013-04-04 19:12:00,
2013-04-04 14:43:00,47.0,19.0,-100.00,NW,306,11.0,19.0,33,0.00,,,0.00,680.000000,,2013-04-04 19:43:00,
2013-04-04 14:52:00,47.0,19.0,-100.00,NW,306,11.0,19.0,33,0.00,,,0.00,680.000000,,2013-04-04 19:52:00,
2013-04-04 15:03:00,47.0,19.0,-100.00,NW,306,11.0,19.0,33,0.00,,,0.00,680.000000,,2013-04-04 20:03:00,
2013-04-04 15:12:00,47.0,19.0,-100.00,NW,306,11.0,19.0,33,0.00,,,0.00,680.000000,,2013-04-04 20:12:00,
2013-04-04 15:42:00,48.0,19.0,-100.00,NW,319,10.0,21.0,31,0.00,,,0.00,734.000000,,2013-04-04 20:42:00,
2013-04-04 15:53:00,48.0,19.0,-100.00,NW,319,10.0,21.0,31,0.00,,,0.00,734.000000,,2013-04-04 20:53:00,
2013-04-04 16:02:00,48.0,19.0,-100.00,NW,319,10.0,21.0,31,0.00,,,0.00,734.000000,,2013-04-04 21:02:00,
2013-04-04 16:12:00,48.0,19.0,-100.00,NW,319,10.0,21.0,31,0.00,,,0.00,734.000000,,2013-04-04 21:12:00,
2013-04-04 16:43:00,48.0,18.0,-100.00,NW,324,8.0,20.0,30,0.00,,,-99.99,627.000000,,2013-04-04 21:43:00,
2013-04-04 16:53:00,48.0,18.0,-100.00,NW,324,8.0,20.0,30,0.00,,,-99.99,627.000000,,2013-04-04 21:53:00,
2013-04-04 17:12:00,48.0,18.0,-100.00,NW,324,8.0,20.0,30,0.00,,,-99.99,627.000000,,2013-04-04 22:12:00,
2013-04-04 17:33:00,48.0,16.0,-100.00,NNW,337,9.0,16.0,28,0.00,,,0.00,478.000000,,2013-04-04 22:33:00,
2013-04-04 17:43:00,48.0,16.0,-100.00,NNW,337,9.0,16.0,28,0.00,,,0.00,478.000000,,2013-04-04 22:43:00,
2013-04-04 17:53:00,48.0,16.0,-100.00,NNW,337,9.0,16.0,28,0.00,,,0.00,478.000000,,2013-04-04 22:53:00,
2013-04-04 18:03:00,48.0,16.0,-100.00,NNW,337,9.0,16.0,28,0.00,,,0.00,478.000000,,2013-04-04 23:03:00,
2013-04-04 18:12:00,48.0,16.0,-100.00,NNW,337,9.0,16.0,28,0.00,,,0.00,478.000000,,2013-04-04 23:12:00,
2013-04-04 18:42:00,46.0,16.0,-100.00,NNW,337,7.0,20.0,29,0.00,,,0.00,305.000000,,2013-04-04 23:42:00,
2013-04-04 18:52:00,46.0,16.0,-100.00,NNW,337,7.0,20.0,29,0.00,,,0.00,305.000000,,2013-04-04 23:52:00,
2013-04-04 19:02:00,46.0,16.0,-100.00,NNW,337,7.0,20.0,29,0.00,,,0.00,305.000000,,2013-04-05 00:02:00,
2013-04-04 19:12:00,46.0,16.0,-100.00,NNW,337,7.0,20.0,29,0.00,,,0.00,305.000000,,2013-04-05 00:12:00,
2013-04-04 19:43:00,42.0,14.0,-100.00,NNW,335,8.0,16.0,32,0.00,,,0.00,126.000000,,2013-04-05 00:43:00,
2013-04-04 19:52:00,42.0,14.0,-100.00,NNW,335,8.0,16.0,32,0.00,,,0.00,126.000000,,2013-04-05 00:52:00,
2013-04-04 20:02:00,42.0,14.0,-100.00,NNW,335,8.0,16.0,32,0.00,,,0.00,126.000000,,2013-04-05 01:02:00,
2013-04-04 20:12:00,42.0,14.0,-100.00,NNW,335,8.0,16.0,32,0.00,,,0.00,126.000000,,2013-04-05 01:12:00,
2013-04-04 20:42:00,39.0,16.0,-100.00,NNW,330,4.0,14.0,38,0.00,,,0.00,10.000000,,2013-04-05 01:42:00,
2013-04-04 20:53:00,39.0,16.0,-100.00,NNW,330,4.0,14.0,38,0.00,,,0.00,10.000000,,2013-04-05 01:53:00,
2013-04-04 21:03:00,39.0,16.0,-100.00,NNW,330,4.0,14.0,38,0.00,,,0.00,10.000000,,2013-04-05 02:03:00,
2013-04-04 21:12:00,39.0,16.0,-100.00,NNW,330,4.0,14.0,38,0.00,,,0.00,10.000000,,2013-04-05 02:12:00,
2013-04-04 21:42:00,35.0,14.0,-100.00,NNW,330,1.0,10.0,42,0.00,,,0.00,0.000000,,2013-04-05 02:42:00,
2013-04-04 21:52:00,35.0,14.0,-100.00,NNW,330,1.0,10.0,42,0.00,,,0.00,0.000000,,2013-04-05 02:52:00,
2013-04-04 22:02:00,35.0,14.0,-100.00,NNW,330,1.0,10.0,42,0.00,,,0.00,0.000000,,2013-04-05 03:02:00,
2013-04-04 22:12:00,35.0,14.0,-100.00,NNW,330,1.0,10.0,42,0.00,,,0.00,0.000000,,2013-04-05 03:12:00,
2013-04-04 22:43:00,29.0,16.0,-100.00,NW,317,1.0,6.0,57,0.00,,,0.00,0.000000,,2013-04-05 03:43:00,
2013-04-04 22:54:00,29.0,16.0,-100.00,NW,317,1.0,6.0,57,0.00,,,0.00,0.000000,,2013-04-05 03:54:00,
2013-04-04 23:02:00,29.0,16.0,-100.00,NW,317,1.0,6.0,57,0.00,,,0.00,0.000000,,2013-04-05 04:02:00,
2013-04-04 23:12:00,29.0,16.0,-100.00,NW,317,1.0,6.0,57,0.00,,,0.00,0.000000,,2013-04-05 04:12:00,
2013-04-04 23:42:00,30.0,14.0,-100.00,NNW,344,3.0,7.0,50,0.00,,,0.00,0.000000,,2013-04-05 04:42:00,
2013-04-04 23:52:00,30.0,14.0,-100.00,NNW,344,3.0,7.0,50,0.00,,,0.00,0.000000,,2013-04-05 04:52:00,